createdAt,value
2022-08-03T00:01:19.070Z,19.47
2022-08-03T00:04:34.227Z,19.46
2022-08-03T00:07:31.955Z,19.48
2022-08-03T00:10:38.740Z,19.48
2022-08-03T00:13:43.930Z,19.33
2022-08-03T00:16:49.378Z,19.34
2022-08-03T00:19:54.091Z,19.37
2022-08-03T00:22:59.743Z,19.37
2022-08-03T00:26:05.278Z,19.37
2022-08-03T00:29:10.806Z,19.35
2022-08-03T00:32:16.703Z,19.33
2022-08-03T00:35:33.451Z,19.33
2022-08-03T00:38:32.871Z,19.40
2022-08-03T00:41:39.854Z,19.48
2022-08-03T00:44:45.439Z,19.49
2022-08-03T00:47:52.008Z,19.44
2022-08-03T00:50:58.682Z,19.47
2022-08-03T00:54:04.645Z,19.47
2022-08-03T00:57:10.626Z,19.50
2022-08-03T01:00:09.162Z,19.37
2022-08-03T01:03:14.727Z,19.35
2022-08-03T01:06:36.150Z,19.37
2022-08-03T01:10:02.192Z,19.39
2022-08-03T01:14:01.559Z,19.40
2022-08-03T01:16:54.024Z,19.40
2022-08-03T01:20:25.324Z,19.38
2022-08-03T01:23:44.267Z,19.43
2022-08-03T01:27:22.758Z,19.46
2022-08-03T01:30:28.854Z,19.45
2022-08-03T01:33:40.748Z,19.28
2022-08-03T01:36:52.962Z,19.23
2022-08-03T01:39:58.724Z,19.21
2022-08-03T01:43:05.177Z,19.19
2022-08-03T01:46:12.002Z,19.22
2022-08-03T01:49:18.440Z,19.18
2022-08-03T01:52:25.691Z,19.11
2022-08-03T01:55:35.386Z,19.21
2022-08-03T01:58:42.110Z,19.21
2022-08-03T02:02:29.892Z,19.18
2022-08-03T02:04:53.882Z,19.22
2022-08-03T02:07:58.624Z,19.20
2022-08-03T02:11:04.625Z,19.18
2022-08-03T02:14:10.404Z,19.18
2022-08-03T02:17:16.136Z,19.18
2022-08-03T02:20:23.695Z,19.22
2022-08-03T02:23:31.439Z,19.24
2022-08-03T02:26:37.505Z,19.31
2022-08-03T02:29:48.346Z,19.28
2022-08-03T02:32:54.980Z,19.24
2022-08-03T02:36:01.088Z,19.29
2022-08-03T02:39:11.884Z,19.32
2022-08-03T02:42:17.733Z,19.41
2022-08-03T02:45:26.251Z,19.57
2022-08-03T02:48:38.022Z,19.72
2022-08-03T02:51:47.768Z,19.79
2022-08-03T02:54:54.145Z,19.86
2022-08-03T02:58:01.278Z,20.00
2022-08-03T03:01:07.957Z,20.06
2022-08-03T03:04:13.993Z,20.07
2022-08-03T03:07:19.726Z,20.10
2022-08-03T03:10:26.499Z,20.12
2022-08-03T03:13:32.207Z,20.09
2022-08-03T03:16:38.103Z,20.10
2022-08-03T03:19:42.923Z,20.09
2022-08-03T03:22:48.886Z,20.10
2022-08-03T03:25:53.546Z,20.10
2022-08-03T03:28:59.312Z,20.20
2022-08-03T03:32:05.678Z,20.30
2022-08-03T03:35:12.321Z,20.33
2022-08-03T03:38:18.170Z,20.45
2022-08-03T03:41:23.874Z,20.58
2022-08-03T03:44:29.318Z,20.66
2022-08-03T03:47:34.851Z,20.80
2022-08-03T03:50:40.203Z,21.00
2022-08-03T03:53:45.966Z,21.18
2022-08-03T04:06:45.796Z,21.86
2022-08-03T04:10:14.394Z,21.98
2022-08-03T04:13:18.527Z,22.08
2022-08-03T04:16:26.671Z,22.13
2022-08-03T04:19:43.254Z,22.21
2022-08-03T04:22:48.894Z,22.29
2022-08-03T04:25:55.010Z,22.43
2022-08-03T04:29:01.516Z,22.58
2022-08-03T04:32:07.492Z,22.80
2022-08-03T04:35:13.155Z,23.03
2022-08-03T04:38:21.103Z,23.15
2022-08-03T04:41:27.045Z,23.21
2022-08-03T04:44:32.216Z,23.28
2022-08-03T04:47:37.468Z,23.36
2022-08-03T04:50:42.811Z,23.32
2022-08-03T04:53:47.884Z,23.33
2022-08-03T04:56:59.495Z,23.36
2022-08-03T05:00:10.435Z,23.49
2022-08-03T05:03:23.505Z,23.66
2022-08-03T05:06:25.679Z,23.82
2022-08-03T05:09:48.926Z,23.83
2022-08-03T05:12:37.997Z,23.78
2022-08-03T05:15:43.697Z,23.69
2022-08-03T05:18:50.041Z,23.70
2022-08-03T05:21:55.502Z,23.84
2022-08-03T05:25:00.850Z,23.96
2022-08-03T05:28:06.576Z,23.97
2022-08-03T05:31:11.932Z,23.92
2022-08-03T05:34:10.692Z,23.88
2022-08-03T05:37:16.304Z,23.96
2022-08-03T05:40:21.958Z,24.06
2022-08-03T05:43:27.229Z,24.19
2022-08-03T05:46:33.872Z,24.27
2022-08-03T05:49:40.373Z,24.38
2022-08-03T05:52:47.065Z,24.60
2022-08-03T05:55:56.136Z,24.87
2022-08-03T05:59:11.564Z,25.18
2022-08-03T06:02:07.563Z,25.49
2022-08-03T06:05:12.019Z,25.74
2022-08-03T06:08:16.901Z,25.78
2022-08-03T06:11:23.203Z,25.82
2022-08-03T06:14:28.494Z,25.91
2022-08-03T06:17:27.627Z,25.95
2022-08-03T06:20:36.696Z,25.97
2022-08-03T06:23:54.015Z,25.92
2022-08-03T06:26:49.202Z,25.88
2022-08-03T06:29:49.474Z,25.91
2022-08-03T06:32:56.425Z,25.90
2022-08-03T06:36:02.264Z,25.85
2022-08-03T06:39:08.194Z,25.81
2022-08-03T06:42:13.871Z,25.82
2022-08-03T06:45:21.848Z,25.82
2022-08-03T06:48:27.405Z,25.81
2022-08-03T06:52:03.000Z,25.78
2022-08-03T06:54:41.134Z,25.70
2022-08-03T06:57:47.243Z,25.70
2022-08-03T07:00:46.692Z,25.74
2022-08-03T07:03:54.176Z,25.71
2022-08-03T07:07:00.153Z,25.79
2022-08-03T07:10:07.147Z,25.72
2022-08-03T07:13:07.118Z,25.70
2022-08-03T07:16:13.387Z,25.66
2022-08-03T07:19:19.108Z,25.64
2022-08-03T07:22:24.766Z,25.52
2022-08-03T07:25:30.402Z,25.42
2022-08-03T07:28:36.212Z,25.39
2022-08-03T07:31:41.944Z,25.41
2022-08-03T07:34:47.993Z,25.39
2022-08-03T07:37:54.533Z,25.38
2022-08-03T07:41:00.609Z,25.50
2022-08-03T07:44:06.515Z,25.62
2022-08-03T07:47:19.347Z,25.74
2022-08-03T07:50:20.538Z,25.85
2022-08-03T07:53:26.034Z,25.85
2022-08-03T07:56:35.292Z,25.96
2022-08-03T07:59:56.423Z,26.21
2022-08-03T08:02:46.191Z,26.53
2022-08-03T08:05:50.642Z,26.69
2022-08-03T08:08:56.302Z,26.80
2022-08-03T08:12:01.216Z,26.90
2022-08-03T08:15:06.496Z,27.03
2022-08-03T08:18:13.762Z,27.08
2022-08-03T08:21:19.246Z,27.23
2022-08-03T08:24:26.890Z,27.22
2022-08-03T08:28:29.190Z,27.33
2022-08-03T08:30:40.636Z,27.57
2022-08-03T08:34:03.783Z,27.83
2022-08-03T08:36:53.518Z,28.18
2022-08-03T08:39:59.737Z,28.36
2022-08-03T08:43:07.665Z,28.44
2022-08-03T08:46:23.286Z,28.43
2022-08-03T08:49:23.352Z,28.40
2022-08-03T08:52:31.996Z,28.41
2022-08-03T08:55:58.300Z,28.39
2022-08-03T08:58:46.793Z,28.37
2022-08-03T09:01:53.137Z,28.51
2022-08-03T09:05:02.950Z,28.66
2022-08-03T09:08:07.135Z,28.59
2022-08-03T09:11:13.054Z,28.34
2022-08-03T09:14:37.028Z,28.27
2022-08-03T09:17:26.912Z,28.25
2022-08-03T09:20:32.532Z,28.21
2022-08-03T09:23:44.681Z,28.12
2022-08-03T09:26:50.067Z,28.09
2022-08-03T09:29:49.909Z,27.87
2022-08-03T09:32:56.243Z,27.66
2022-08-03T09:36:04.157Z,27.68
2022-08-03T09:39:40.467Z,27.82
2022-08-03T09:42:24.252Z,27.82
2022-08-03T09:45:41.308Z,27.86
2022-08-03T09:48:40.837Z,28.08
2022-08-03T09:52:31.606Z,28.08
2022-08-03T09:54:52.526Z,28.30
2022-08-03T09:57:59.097Z,28.30
2022-08-03T10:01:24.160Z,28.34
2022-08-03T10:04:29.927Z,28.42
2022-08-03T10:07:34.549Z,28.48
2022-08-03T10:10:35.863Z,28.55
2022-08-03T10:13:41.813Z,28.65
2022-08-03T10:16:53.178Z,28.74
2022-08-03T10:19:58.784Z,28.81
2022-08-03T10:23:07.110Z,28.82
2022-08-03T10:26:16.698Z,28.69
2022-08-03T10:29:26.513Z,28.65
2022-08-03T10:32:53.604Z,28.62
2022-08-03T10:35:58.651Z,28.63
2022-08-03T10:39:16.375Z,28.64
2022-08-03T10:42:16.375Z,28.51
2022-08-03T10:45:33.719Z,28.45
2022-08-03T10:48:39.090Z,28.39
2022-08-03T10:51:40.938Z,28.34
2022-08-03T10:55:15.783Z,28.38
2022-08-03T10:58:30.283Z,28.52
2022-08-03T11:01:32.244Z,28.55
2022-08-03T11:04:36.556Z,28.53
2022-08-03T11:07:41.930Z,28.64
2022-08-03T11:10:47.354Z,28.64
2022-08-03T11:13:53.142Z,28.60
2022-08-03T11:17:02.042Z,28.60
2022-08-03T11:20:09.067Z,28.73
2022-08-03T11:23:14.747Z,28.72
2022-08-03T11:26:31.463Z,28.72
2022-08-03T11:29:40.257Z,28.82
2022-08-03T11:32:59.462Z,28.86
2022-08-03T11:36:32.562Z,28.87
2022-08-03T11:39:30.047Z,28.90
2022-08-03T11:42:43.563Z,28.86
2022-08-03T11:45:50.816Z,28.70
2022-08-03T11:49:06.513Z,28.52
2022-08-03T11:52:09.966Z,28.37
2022-08-03T11:55:15.840Z,28.16
2022-08-03T11:59:01.813Z,28.06
2022-08-03T12:01:28.252Z,28.12
2022-08-03T12:04:33.976Z,28.25
2022-08-03T12:08:03.046Z,28.34
2022-08-03T12:10:46.277Z,28.31
2022-08-03T12:14:46.317Z,28.25
2022-08-03T12:37:22.852Z,27.81
2022-08-03T12:40:22.177Z,27.76
2022-08-03T12:46:05.802Z,27.84
2022-08-03T12:49:26.856Z,27.72
2022-08-03T12:52:34.673Z,27.70
2022-08-03T12:55:57.285Z,27.67
2022-08-03T12:58:49.946Z,27.57
2022-08-03T13:01:56.177Z,27.45
2022-08-03T13:05:02.375Z,27.56
2022-08-03T13:08:08.418Z,27.64
2022-08-03T13:12:00.964Z,27.63
2022-08-03T13:14:42.712Z,27.51
2022-08-03T13:17:50.308Z,27.44
2022-08-03T13:20:57.807Z,27.43
2022-08-03T13:24:03.392Z,27.46
2022-08-03T13:28:09.863Z,27.47
2022-08-03T13:30:30.122Z,27.51
2022-08-03T13:33:25.454Z,27.53
2022-08-03T13:36:42.745Z,27.40
2022-08-03T13:39:57.882Z,27.33
2022-08-03T13:42:40.600Z,27.33
2022-08-03T13:45:50.380Z,27.35
2022-08-03T13:56:12.443Z,27.40
2022-08-03T13:59:18.606Z,27.37
2022-08-03T14:02:24.265Z,27.30
2022-08-03T14:05:30.164Z,27.16
2022-08-03T14:08:37.782Z,27.11
2022-08-03T14:12:08.379Z,27.06
2022-08-03T14:14:49.898Z,27.05
2022-08-03T14:17:56.366Z,27.12
2022-08-03T14:20:59.620Z,27.07
2022-08-03T14:24:04.784Z,26.96
2022-08-03T14:27:10.737Z,26.96
2022-08-03T14:30:16.227Z,26.96
2022-08-03T14:33:23.203Z,27.03
2022-08-03T14:36:29.277Z,27.13
2022-08-03T14:42:42.048Z,27.17
2022-08-03T14:45:47.842Z,27.14
2022-08-03T14:50:29.229Z,27.11
2022-08-03T14:51:54.196Z,27.04
2022-08-03T14:55:01.024Z,27.07
2022-08-03T14:58:19.766Z,27.13
2022-08-03T15:02:06.488Z,27.17
2022-08-03T15:04:22.311Z,27.25
2022-08-03T15:07:29.653Z,27.27
2022-08-03T15:10:44.605Z,27.19
2022-08-03T15:13:32.662Z,27.12
2022-08-03T15:16:39.340Z,27.12
2022-08-03T15:20:00.474Z,27.02
2022-08-03T15:22:56.783Z,26.92
2022-08-03T15:26:30.553Z,26.75
2022-08-03T15:29:10.806Z,26.75
2022-08-03T15:32:18.210Z,26.70
2022-08-03T15:35:23.874Z,26.66
2022-08-03T15:38:32.566Z,26.66
2022-08-03T15:41:37.851Z,26.68
2022-08-03T15:44:43.956Z,26.56
2022-08-03T15:47:49.400Z,26.48
2022-08-03T15:50:55.273Z,26.39
2022-08-03T15:54:01.310Z,26.32
2022-08-03T15:57:06.886Z,26.19
2022-08-03T16:00:12.393Z,26.12
2022-08-03T16:03:18.510Z,26.00
2022-08-03T16:06:29.617Z,26.01
2022-08-03T16:09:42.098Z,25.88
2022-08-03T16:12:39.511Z,25.72
2022-08-03T16:15:46.226Z,25.66
2022-08-03T16:18:52.620Z,25.56
2022-08-03T16:22:00.207Z,25.51
2022-08-03T16:25:13.974Z,25.39
2022-08-03T16:28:16.384Z,25.24
2022-08-03T16:31:21.618Z,25.14
2022-08-03T16:34:27.139Z,25.05
2022-08-03T16:37:38.644Z,25.09
2022-08-03T16:40:40.143Z,25.05
2022-08-03T16:43:45.870Z,24.97
2022-08-03T16:46:52.693Z,24.78
2022-08-03T16:49:56.284Z,24.64
2022-08-03T16:53:01.486Z,24.52
2022-08-03T16:56:10.868Z,24.45
2022-08-03T16:59:17.204Z,24.32
2022-08-03T17:02:26.210Z,24.25
2022-08-03T17:05:43.705Z,24.12
2022-08-03T17:08:37.274Z,24.08
2022-08-03T17:11:47.175Z,24.04
2022-08-03T17:14:52.030Z,23.93
2022-08-03T17:18:04.850Z,23.79
2022-08-03T17:21:10.494Z,23.70
2022-08-03T17:24:28.749Z,23.61
2022-08-03T17:28:49.150Z,23.63
2022-08-03T17:31:23.058Z,23.56
2022-08-03T17:34:14.581Z,23.48
2022-08-03T17:37:50.692Z,23.31
2022-08-03T17:40:27.535Z,23.30
2022-08-03T17:44:13.420Z,23.21
2022-08-03T17:46:42.000Z,23.10
2022-08-03T17:49:50.531Z,23.09
2022-08-03T17:52:57.038Z,23.02
2022-08-03T17:56:44.372Z,23.02
2022-08-03T17:59:51.472Z,23.05
2022-08-03T18:03:22.722Z,23.02
2022-08-03T18:06:29.866Z,23.02
2022-08-03T18:10:06.181Z,22.91
2022-08-03T18:12:43.591Z,22.86
2022-08-03T18:15:54.375Z,22.94
2022-08-03T18:19:01.562Z,22.88
2022-08-03T18:22:09.980Z,22.89
2022-08-03T18:25:16.033Z,22.85
2022-08-03T18:28:23.397Z,22.74
2022-08-03T18:32:03.806Z,22.76
2022-08-03T18:34:41.092Z,22.69
2022-08-03T18:37:51.972Z,22.68
2022-08-03T18:44:06.857Z,22.65
2022-08-03T18:47:17.834Z,22.70
2022-08-03T18:50:49.841Z,22.55
2022-08-03T18:54:05.880Z,22.62
2022-08-03T18:57:11.849Z,22.69
2022-08-03T19:00:24.372Z,22.51
2022-08-03T19:06:38.545Z,22.37
2022-08-03T19:10:15.750Z,22.25
2022-08-03T19:13:30.956Z,22.16
2022-08-03T19:16:42.835Z,22.24
2022-08-03T19:19:49.573Z,22.09
2022-08-03T19:22:55.201Z,21.98
2022-08-03T19:26:00.936Z,21.89
2022-08-03T19:28:59.453Z,21.82
2022-08-03T19:32:05.697Z,21.89
2022-08-03T19:35:18.973Z,21.86
2022-08-03T19:38:27.515Z,21.79
2022-08-03T19:41:27.101Z,21.69
2022-08-03T19:44:41.260Z,21.60
2022-08-03T19:48:09.735Z,21.51
2022-08-03T19:51:13.419Z,21.32
2022-08-03T19:54:29.714Z,21.24
2022-08-03T19:57:32.109Z,21.17
2022-08-03T20:00:38.241Z,21.17
2022-08-03T20:03:43.872Z,21.14
2022-08-03T20:06:50.498Z,21.12
2022-08-03T20:09:57.365Z,21.13
2022-08-03T20:13:03.401Z,21.15
2022-08-03T20:16:08.941Z,21.20
2022-08-03T20:19:17.689Z,21.09
2022-08-03T20:22:27.750Z,21.01
2022-08-03T20:25:38.366Z,20.98
2022-08-03T20:28:50.390Z,20.91
2022-08-03T20:31:55.104Z,20.97
2022-08-03T20:35:01.378Z,20.99
2022-08-03T20:38:07.768Z,21.09
2022-08-03T20:41:13.483Z,21.03
2022-08-03T20:44:25.580Z,21.01
2022-08-03T20:47:26.682Z,21.15
2022-08-03T20:50:33.807Z,21.16
2022-08-03T20:53:57.092Z,21.19
2022-08-03T20:56:49.828Z,21.07
2022-08-03T20:59:55.166Z,20.96
2022-08-03T21:03:00.906Z,20.95
2022-08-03T21:06:07.246Z,20.94
2022-08-03T21:09:17.996Z,20.98
2022-08-03T21:12:26.967Z,21.05
2022-08-03T21:13:05.062Z,22.58
2022-08-03T21:13:09.523Z,22.44
2022-08-03T21:16:02.623Z,21.11
2022-08-03T21:18:37.377Z,21.08
2022-08-03T21:21:46.637Z,20.98
2022-08-03T21:24:50.366Z,20.92
2022-08-03T21:27:55.346Z,20.99
2022-08-03T21:31:01.718Z,21.01
2022-08-03T21:34:06.817Z,20.97
2022-08-03T21:37:12.038Z,20.97
2022-08-03T21:40:12.892Z,20.95
2022-08-03T21:43:18.722Z,20.95
2022-08-03T21:46:24.422Z,20.84
2022-08-03T21:50:04.559Z,21.03
2022-08-03T21:52:37.392Z,21.05
2022-08-03T21:55:43.952Z,20.98
2022-08-03T21:59:05.411Z,20.99
2022-08-03T22:02:20.025Z,21.01
2022-08-03T22:05:17.225Z,21.12
2022-08-03T22:08:27.349Z,21.15
2022-08-03T22:11:28.065Z,21.07
2022-08-03T22:14:34.825Z,21.04
2022-08-03T22:17:54.796Z,21.08
2022-08-03T22:20:47.494Z,21.13
2022-08-03T22:24:01.238Z,21.10
2022-08-03T22:27:26.810Z,21.15
2022-08-03T22:30:34.173Z,21.13
2022-08-03T22:33:39.775Z,21.16
2022-08-03T22:36:46.354Z,21.17
2022-08-03T22:39:52.635Z,21.19
2022-08-03T22:42:59.429Z,21.18
2022-08-03T22:46:11.557Z,21.17
2022-08-03T22:49:13.058Z,21.18
2022-08-03T22:52:18.714Z,21.19
2022-08-03T22:55:27.175Z,21.25
2022-08-03T22:58:33.751Z,21.32
2022-08-03T23:01:32.184Z,21.20
2022-08-03T23:04:26.024Z,21.15
2022-08-03T23:07:33.480Z,21.11
2022-08-03T23:10:42.585Z,21.08
2022-08-03T23:13:47.940Z,21.11
2022-08-03T23:16:55.367Z,21.17
2022-08-03T23:20:00.998Z,21.08
2022-08-03T23:23:07.771Z,21.11
2022-08-03T23:26:14.661Z,21.13
2022-08-03T23:29:21.740Z,21.09
2022-08-03T23:32:21.128Z,21.12
2022-08-03T23:36:20.090Z,21.12
2022-08-03T23:38:23.336Z,21.04
2022-08-03T23:41:11.526Z,20.96
2022-08-03T23:44:04.338Z,20.95
2022-08-03T23:46:49.825Z,20.87
2022-08-03T23:49:41.973Z,20.82
2022-08-03T23:52:37.376Z,20.86
2022-08-03T23:55:55.776Z,20.78
2022-08-03T23:59:05.984Z,20.73
